createdAt,value
2023-03-16T00:02:06.462Z,12.60
2023-03-16T00:04:37.860Z,12.85
2023-03-16T00:09:41.440Z,11.75
2023-03-16T00:12:16.345Z,11.38
2023-03-16T00:14:48.619Z,12.88
2023-03-16T00:17:19.607Z,11.43
2023-03-16T00:19:49.025Z,11.98
2023-03-16T00:22:16.562Z,12.50
2023-03-16T00:24:43.892Z,12.23
2023-03-16T00:27:16.332Z,12.13
2023-03-16T00:29:48.662Z,12.05
2023-03-16T00:32:21.195Z,11.68
2023-03-16T00:34:48.781Z,12.13
2023-03-16T00:37:18.285Z,11.88
2023-03-16T00:39:46.863Z,11.88
2023-03-16T00:42:16.629Z,11.93
2023-03-16T00:44:44.825Z,10.88
2023-03-16T00:47:15.718Z,11.32
2023-03-16T00:49:44.231Z,11.53
2023-03-16T00:52:16.373Z,11.20
2023-03-16T00:54:45.249Z,11.60
2023-03-16T00:57:16.502Z,11.10
2023-03-16T00:59:43.520Z,11.23
2023-03-16T01:02:12.503Z,11.95
2023-03-16T01:04:41.731Z,11.90
2023-03-16T01:07:12.267Z,10.23
2023-03-16T01:09:43.045Z,11.80
2023-03-16T01:12:17.319Z,11.90
2023-03-16T01:14:46.094Z,11.02
2023-03-16T01:17:14.640Z,10.65
2023-03-16T01:19:43.491Z,9.52
2023-03-16T01:22:11.673Z,10.60
2023-03-16T01:24:40.025Z,10.38
2023-03-16T01:27:08.400Z,10.75
2023-03-16T01:29:36.641Z,11.18
2023-03-16T01:32:05.051Z,10.75
2023-03-16T01:34:33.707Z,10.05
2023-03-16T01:37:01.462Z,10.55
2023-03-16T01:39:48.767Z,11.05
2023-03-16T01:42:16.254Z,11.43
2023-03-16T01:44:52.968Z,10.02
2023-03-16T01:47:20.587Z,11.50
2023-03-16T01:49:48.416Z,10.68
2023-03-16T01:52:21.482Z,10.50
2023-03-16T01:54:52.993Z,9.85
2023-03-16T02:00:18.677Z,9.85
2023-03-16T02:03:13.980Z,9.43
2023-03-16T02:06:14.661Z,11.20
2023-03-16T02:08:49.348Z,11.00
2023-03-16T02:11:22.774Z,8.73
2023-03-16T02:14:11.903Z,10.65
2023-03-16T02:16:40.957Z,11.15
2023-03-16T02:19:12.792Z,9.65
2023-03-16T02:21:58.768Z,10.63
2023-03-16T02:24:26.588Z,11.00
2023-03-16T02:26:57.624Z,11.00
2023-03-16T02:29:50.011Z,9.52
2023-03-16T02:32:18.143Z,8.82
2023-03-16T02:34:45.446Z,9.57
2023-03-16T02:37:13.642Z,9.70
2023-03-16T02:39:44.210Z,10.18
2023-03-16T02:42:18.232Z,9.27
2023-03-16T02:44:53.257Z,10.75
2023-03-16T02:47:45.714Z,10.45
2023-03-16T02:50:13.836Z,9.23
2023-03-16T02:52:41.922Z,10.20
2023-03-16T02:55:10.272Z,10.13
2023-03-16T02:57:37.458Z,10.85
2023-03-16T03:00:19.159Z,10.48
2023-03-16T03:02:52.614Z,10.38
2023-03-16T03:05:21.357Z,10.07
2023-03-16T03:07:48.368Z,10.27
2023-03-16T03:10:16.025Z,10.15
2023-03-16T03:12:42.921Z,10.40
2023-03-16T03:15:10.793Z,11.18
2023-03-16T03:17:54.192Z,9.90
2023-03-16T03:20:22.276Z,11.18
2023-03-16T03:22:50.357Z,11.00
2023-03-16T03:25:19.322Z,11.10
2023-03-16T03:27:47.930Z,11.52
2023-03-16T03:30:21.223Z,11.63
2023-03-16T03:32:48.863Z,12.13
2023-03-16T03:35:18.520Z,12.05
2023-03-16T03:37:45.903Z,11.57
2023-03-16T03:40:16.667Z,13.23
2023-03-16T03:42:47.505Z,12.30
2023-03-16T03:45:15.902Z,12.98
2023-03-16T03:47:43.825Z,12.05
2023-03-16T03:50:15.784Z,11.60
2023-03-16T03:53:01.727Z,16.90
2023-03-16T03:55:32.907Z,13.27
2023-03-16T03:58:01.013Z,13.80
2023-03-16T04:00:29.754Z,13.43
2023-03-16T04:02:56.969Z,12.68
2023-03-16T04:05:32.517Z,13.13
2023-03-16T04:07:59.725Z,13.05
2023-03-16T04:10:29.201Z,12.63
2023-03-16T04:12:57.840Z,13.57
2023-03-16T04:15:26.253Z,12.88
2023-03-16T04:18:03.818Z,13.38
2023-03-16T04:20:31.425Z,12.77
2023-03-16T04:22:58.907Z,13.27
2023-03-16T04:25:27.934Z,13.70
2023-03-16T04:27:55.219Z,13.75
2023-03-16T04:30:25.916Z,14.37
2023-03-16T04:32:59.905Z,13.50
2023-03-16T04:35:27.608Z,13.35
2023-03-16T04:37:58.101Z,13.85
2023-03-16T04:40:33.342Z,14.05
2023-03-16T04:43:07.680Z,13.32
2023-03-16T04:45:36.397Z,13.70
2023-03-16T04:48:03.500Z,15.63
2023-03-16T04:50:31.201Z,13.60
2023-03-16T04:52:58.158Z,14.48
2023-03-16T04:55:26.193Z,14.60
2023-03-16T04:57:53.455Z,14.40
2023-03-16T05:00:23.541Z,14.00
2023-03-16T05:03:14.277Z,14.68
2023-03-16T05:05:42.627Z,13.88
2023-03-16T05:08:12.265Z,14.23
2023-03-16T05:10:42.803Z,14.52
2023-03-16T05:13:10.131Z,13.73
2023-03-16T05:15:38.272Z,15.45
2023-03-16T05:18:16.102Z,13.70
2023-03-16T05:20:43.315Z,14.18
2023-03-16T05:23:11.837Z,15.30
2023-03-16T05:25:48.106Z,14.98
2023-03-16T05:28:17.464Z,15.77
2023-03-16T05:30:51.844Z,15.75
2023-03-16T05:33:23.722Z,13.98
2023-03-16T05:35:58.227Z,15.55
2023-03-16T05:38:27.593Z,15.23
2023-03-16T05:40:55.502Z,16.42
2023-03-16T05:43:35.021Z,15.20
2023-03-16T05:46:03.791Z,16.02
2023-03-16T05:48:31.553Z,15.73
2023-03-16T05:51:00.419Z,16.67
2023-03-16T05:53:29.784Z,15.05
2023-03-16T05:56:04.955Z,15.32
2023-03-16T05:58:34.862Z,15.25
2023-03-16T06:01:08.054Z,16.67
2023-03-16T06:03:36.881Z,14.65
2023-03-16T06:06:05.853Z,14.00
2023-03-16T06:08:41.085Z,14.23
2023-03-16T06:11:12.372Z,15.82
2023-03-16T06:13:41.072Z,15.00
2023-03-16T06:16:11.457Z,15.25
2023-03-16T06:18:39.673Z,13.43
2023-03-16T06:21:07.351Z,13.82
2023-03-16T06:23:35.169Z,14.75
2023-03-16T06:26:05.315Z,13.48
2023-03-16T06:28:35.002Z,13.25
2023-03-16T06:31:02.580Z,12.73
2023-03-16T06:36:01.936Z,12.52
2023-03-16T06:38:42.140Z,13.60
2023-03-16T06:41:15.934Z,12.40
2023-03-16T06:43:45.791Z,14.20
2023-03-16T06:46:13.258Z,12.02
2023-03-16T06:48:41.941Z,13.40
2023-03-16T06:51:10.121Z,12.98
2023-03-16T06:53:37.511Z,13.10
2023-03-16T06:56:05.518Z,12.57
2023-03-16T06:58:37.154Z,13.00
2023-03-16T07:01:05.689Z,12.07
2023-03-16T07:03:32.694Z,11.45
2023-03-16T07:06:09.086Z,12.65
2023-03-16T07:08:36.389Z,10.65
2023-03-16T07:11:05.300Z,10.40
2023-03-16T07:13:32.530Z,10.27
2023-03-16T07:16:00.037Z,11.82
2023-03-16T07:18:28.218Z,12.05
2023-03-16T07:20:55.749Z,10.02
2023-03-16T07:23:26.551Z,10.57
2023-03-16T07:25:59.573Z,12.52
2023-03-16T07:28:28.068Z,11.80
2023-03-16T07:31:03.941Z,12.88
2023-03-16T07:33:37.560Z,10.93
2023-03-16T07:36:10.794Z,10.10
2023-03-16T07:38:43.511Z,10.98
2023-03-16T07:41:12.950Z,11.13
2023-03-16T07:43:41.211Z,11.52
2023-03-16T07:46:14.020Z,9.23
2023-03-16T07:51:13.994Z,8.95
2023-03-16T07:53:42.743Z,8.32
2023-03-16T07:56:21.630Z,8.60
2023-03-16T07:58:52.603Z,8.43
2023-03-16T08:01:20.064Z,8.02
2023-03-16T08:03:48.899Z,8.65
2023-03-16T08:06:16.847Z,8.75
2023-03-16T08:08:44.331Z,10.75
2023-03-16T08:11:24.404Z,10.48
2023-03-16T08:13:57.754Z,9.02
2023-03-16T08:16:32.508Z,8.60
2023-03-16T08:19:01.306Z,9.27
2023-03-16T08:21:28.601Z,11.45
2023-03-16T08:23:55.807Z,9.07
2023-03-16T08:26:24.819Z,10.02
2023-03-16T08:28:56.169Z,9.45
2023-03-16T08:31:25.723Z,9.70
2023-03-16T08:34:14.136Z,10.77
2023-03-16T08:36:45.026Z,10.57
2023-03-16T08:39:15.301Z,9.82
2023-03-16T08:41:48.216Z,13.15
2023-03-16T08:44:38.567Z,11.73
2023-03-16T08:47:06.214Z,11.23
2023-03-16T08:49:35.625Z,12.75
2023-03-16T08:52:11.141Z,13.45
2023-03-16T08:54:39.055Z,11.18
2023-03-16T08:57:06.583Z,8.88
2023-03-16T08:59:33.731Z,10.25
2023-03-16T09:02:01.003Z,10.05
2023-03-16T09:04:30.978Z,8.00
2023-03-16T09:07:08.465Z,9.63
2023-03-16T09:09:37.458Z,9.45
2023-03-16T09:12:06.172Z,9.90
2023-03-16T09:14:33.440Z,9.45
2023-03-16T09:17:00.811Z,9.10
2023-03-16T09:19:30.680Z,9.32
2023-03-16T09:22:02.410Z,10.75
2023-03-16T09:24:29.575Z,7.55
2023-03-16T09:26:57.500Z,8.55
2023-03-16T09:29:24.973Z,7.85
2023-03-16T09:31:52.511Z,7.63
2023-03-16T09:34:19.942Z,7.70
2023-03-16T09:36:47.331Z,6.82
2023-03-16T09:39:14.582Z,8.05
2023-03-16T09:41:59.145Z,7.55
2023-03-16T09:44:50.910Z,7.20
2023-03-16T09:47:29.869Z,5.53
2023-03-16T09:50:00.052Z,5.25
2023-03-16T09:53:02.462Z,5.18
2023-03-16T09:55:36.230Z,4.57
2023-03-16T09:58:12.295Z,4.57
2023-03-16T10:00:48.782Z,4.28
2023-03-16T10:03:39.130Z,4.60
2023-03-16T10:06:11.641Z,4.82
2023-03-16T10:08:43.318Z,4.05
2023-03-16T10:14:30.521Z,4.18
2023-03-16T10:17:14.472Z,4.25
2023-03-16T10:20:01.373Z,4.10
2023-03-16T10:22:35.072Z,3.90
2023-03-16T10:25:19.041Z,3.53
2023-03-16T10:27:48.411Z,2.60
2023-03-16T10:30:19.593Z,2.58
2023-03-16T10:32:47.431Z,2.70
2023-03-16T10:35:45.772Z,5.47
2023-03-16T10:38:33.027Z,4.78
2023-03-16T10:41:00.881Z,3.28
2023-03-16T10:43:30.141Z,3.90
2023-03-16T10:46:03.852Z,3.80
2023-03-16T10:48:35.047Z,4.00
2023-03-16T10:51:08.630Z,3.95
2023-03-16T10:53:39.145Z,3.78
2023-03-16T10:56:20.321Z,3.80
2023-03-16T10:58:47.606Z,5.32
2023-03-16T11:01:32.051Z,5.35
2023-03-16T11:03:59.906Z,4.70
2023-03-16T11:06:32.712Z,4.18
2023-03-16T11:09:22.957Z,5.35
2023-03-16T11:11:51.277Z,4.63
2023-03-16T11:14:22.442Z,5.43
2023-03-16T11:19:49.655Z,4.20
2023-03-16T11:22:21.543Z,4.43
2023-03-16T11:24:54.201Z,3.92
2023-03-16T11:27:43.596Z,4.30
2023-03-16T11:30:13.781Z,4.40
2023-03-16T11:32:48.876Z,4.10
2023-03-16T11:35:23.723Z,4.38
2023-03-16T11:38:19.339Z,3.88
2023-03-16T11:40:52.655Z,3.42
2023-03-16T11:43:38.605Z,4.68
2023-03-16T11:46:20.763Z,3.85
2023-03-16T11:49:00.285Z,3.72
2023-03-16T11:51:33.564Z,3.60
2023-03-16T11:54:07.856Z,4.53
2023-03-16T11:56:43.862Z,3.88
2023-03-16T11:59:51.997Z,4.47
2023-03-16T12:02:42.177Z,3.88
2023-03-16T12:05:24.906Z,3.70
2023-03-16T12:07:55.489Z,4.28
2023-03-16T12:10:29.549Z,3.38
2023-03-16T12:13:30.615Z,4.20
2023-03-16T12:16:15.441Z,3.70
2023-03-16T12:18:48.021Z,4.85
2023-03-16T12:21:25.653Z,3.78
2023-03-16T12:23:59.969Z,4.22
2023-03-16T12:26:32.592Z,4.60
2023-03-16T12:29:09.443Z,4.35
2023-03-16T12:31:58.957Z,3.80
2023-03-16T12:34:36.867Z,4.13
2023-03-16T12:37:18.387Z,4.85
2023-03-16T12:40:09.255Z,4.53
2023-03-16T12:42:49.345Z,3.63
2023-03-16T12:45:46.593Z,3.70
2023-03-16T12:48:25.462Z,3.30
2023-03-16T12:50:56.859Z,3.53
2023-03-16T12:53:51.976Z,4.13
2023-03-16T12:56:27.977Z,3.78
2023-03-16T12:58:58.319Z,3.13
2023-03-16T13:01:31.535Z,3.70
2023-03-16T13:04:21.317Z,3.50
2023-03-16T13:06:52.790Z,3.85
2023-03-16T13:11:51.690Z,3.30
2023-03-16T13:14:41.037Z,4.30
2023-03-16T13:17:17.095Z,3.80
2023-03-16T13:19:58.961Z,3.55
2023-03-16T13:22:28.048Z,3.40
2023-03-16T13:25:15.519Z,3.70
2023-03-16T13:27:52.408Z,3.65
2023-03-16T13:30:30.851Z,4.45
2023-03-16T13:33:21.921Z,3.67
2023-03-16T13:35:51.647Z,3.30
2023-03-16T13:38:22.759Z,3.20
2023-03-16T13:40:53.334Z,3.40
2023-03-16T13:43:24.464Z,3.28
2023-03-16T13:45:52.662Z,4.05
2023-03-16T13:48:20.158Z,3.22
2023-03-16T13:50:58.714Z,3.08
2023-03-16T13:53:29.525Z,2.90
2023-03-16T13:56:00.088Z,3.15
2023-03-16T13:58:33.663Z,3.33
2023-03-16T14:01:05.560Z,3.53
2023-03-16T14:03:36.374Z,2.92
2023-03-16T14:06:22.974Z,3.90
2023-03-16T14:08:54.091Z,4.15
2023-03-16T14:11:21.729Z,3.70
2023-03-16T14:13:55.061Z,3.78
2023-03-16T14:16:25.732Z,4.70
2023-03-16T14:19:01.066Z,3.60
2023-03-16T14:21:31.828Z,3.05
2023-03-16T14:24:02.383Z,3.92
2023-03-16T14:26:43.986Z,3.42
2023-03-16T14:31:54.833Z,3.80
2023-03-16T14:34:39.736Z,3.00
2023-03-16T14:37:13.891Z,3.30
2023-03-16T14:39:41.790Z,3.20
2023-03-16T14:42:15.341Z,3.63
2023-03-16T14:44:42.875Z,3.72
2023-03-16T14:47:28.813Z,3.65
2023-03-16T14:50:00.741Z,2.78
2023-03-16T14:52:34.206Z,3.17
2023-03-16T14:55:03.657Z,2.80
2023-03-16T14:57:31.316Z,2.88
2023-03-16T14:59:58.406Z,3.15
2023-03-16T15:02:29.842Z,2.60
2023-03-16T15:05:01.458Z,2.65
2023-03-16T15:07:36.124Z,3.75
2023-03-16T15:10:20.268Z,3.20
2023-03-16T15:12:54.179Z,3.10
2023-03-16T15:15:24.004Z,2.97
2023-03-16T15:17:52.552Z,2.95
2023-03-16T15:20:34.844Z,2.67
2023-03-16T15:23:04.895Z,2.40
2023-03-16T15:25:38.684Z,2.88
2023-03-16T15:28:11.908Z,2.95
2023-03-16T15:30:39.296Z,3.30
2023-03-16T15:33:07.655Z,2.78
2023-03-16T15:35:36.996Z,3.10
2023-03-16T15:38:11.680Z,3.30
2023-03-16T15:40:41.463Z,3.33
2023-03-16T15:43:13.316Z,2.95
2023-03-16T15:45:41.327Z,3.70
2023-03-16T15:48:10.917Z,3.00
2023-03-16T15:50:39.831Z,3.20
2023-03-16T15:53:29.525Z,2.75
2023-03-16T15:56:03.072Z,2.88
2023-03-16T15:58:32.709Z,2.92
2023-03-16T16:01:01.220Z,2.75
2023-03-16T16:03:31.554Z,2.90
2023-03-16T16:05:58.714Z,2.58
2023-03-16T16:08:25.981Z,2.45
2023-03-16T16:10:53.683Z,2.90
2023-03-16T16:13:26.698Z,3.05
2023-03-16T16:15:59.548Z,3.00
2023-03-16T16:18:35.037Z,3.03
2023-03-16T16:21:07.415Z,3.53
2023-03-16T16:23:37.142Z,2.72
2023-03-16T16:26:11.247Z,2.47
2023-03-16T16:28:39.306Z,3.00
2023-03-16T16:31:13.270Z,2.67
2023-03-16T16:33:40.879Z,2.53
2023-03-16T16:36:17.762Z,2.55
2023-03-16T16:38:45.910Z,2.75
2023-03-16T16:41:36.441Z,2.88
2023-03-16T16:44:08.400Z,2.80
2023-03-16T16:46:41.136Z,2.50
2023-03-16T16:49:18.068Z,2.50
2023-03-16T16:51:45.378Z,3.50
2023-03-16T16:54:19.748Z,3.95
2023-03-16T16:56:47.770Z,3.65
2023-03-16T16:59:24.537Z,3.28
2023-03-16T17:01:54.187Z,3.75
2023-03-16T17:04:24.938Z,3.83
2023-03-16T17:06:55.861Z,3.43
2023-03-16T17:09:25.552Z,4.03
2023-03-16T17:11:56.206Z,4.28
2023-03-16T17:14:24.118Z,4.43
2023-03-16T17:16:52.087Z,4.72
2023-03-16T17:19:23.531Z,4.32
2023-03-16T17:24:19.018Z,4.25
2023-03-16T17:26:49.412Z,4.32
2023-03-16T17:29:23.120Z,4.85
2023-03-16T17:31:52.144Z,4.72
2023-03-16T17:34:23.588Z,6.20
2023-03-16T17:36:51.376Z,4.85
2023-03-16T17:39:39.650Z,5.45
2023-03-16T17:42:18.682Z,4.72
2023-03-16T17:44:48.804Z,5.15
2023-03-16T17:47:19.622Z,4.80
2023-03-16T17:49:48.955Z,4.40
2023-03-16T17:52:25.379Z,5.60
2023-03-16T17:54:54.203Z,4.32
2023-03-16T17:57:27.517Z,5.40
2023-03-16T17:59:55.829Z,4.60
2023-03-16T18:02:50.136Z,5.20
2023-03-16T18:05:22.396Z,4.57
2023-03-16T18:07:50.668Z,5.17
2023-03-16T18:10:21.065Z,4.97
2023-03-16T18:12:54.812Z,5.55
2023-03-16T18:15:24.769Z,5.47
2023-03-16T18:17:52.771Z,5.00
2023-03-16T18:20:23.991Z,5.75
2023-03-16T18:22:51.419Z,5.25
2023-03-16T18:25:33.332Z,5.50
2023-03-16T18:28:01.703Z,5.45
2023-03-16T18:30:30.367Z,5.28
2023-03-16T18:32:59.952Z,5.68
2023-03-16T18:35:27.944Z,5.60
2023-03-16T18:37:55.738Z,5.57
2023-03-16T18:40:24.745Z,6.20
2023-03-16T18:42:54.412Z,5.10
2023-03-16T18:45:22.294Z,5.38
2023-03-16T18:47:52.614Z,6.07
2023-03-16T18:50:27.865Z,5.63
2023-03-16T18:52:56.712Z,5.15
2023-03-16T18:55:25.920Z,5.57
2023-03-16T18:57:56.549Z,5.15
2023-03-16T19:00:29.909Z,5.90
2023-03-16T19:03:03.325Z,6.20
2023-03-16T19:05:35.783Z,6.40
2023-03-16T19:08:06.540Z,6.13
2023-03-16T19:10:38.858Z,6.68
2023-03-16T19:13:17.409Z,6.22
2023-03-16T19:15:45.755Z,7.10
2023-03-16T19:18:13.067Z,6.55
2023-03-16T19:20:42.741Z,6.13
2023-03-16T19:23:24.199Z,7.38
2023-03-16T19:25:53.300Z,7.00
2023-03-16T19:28:28.232Z,6.47
2023-03-16T19:30:57.357Z,6.90
2023-03-16T19:33:28.101Z,6.65
2023-03-16T19:35:57.154Z,7.07
2023-03-16T19:38:25.777Z,6.38
2023-03-16T19:41:00.893Z,6.72
2023-03-16T19:43:29.381Z,7.25
2023-03-16T19:45:57.126Z,6.57
2023-03-16T19:48:34.032Z,8.32
2023-03-16T19:51:01.989Z,7.30
2023-03-16T19:53:29.451Z,7.65
2023-03-16T19:55:57.499Z,8.40
2023-03-16T19:58:33.618Z,9.70
2023-03-16T20:01:02.296Z,10.40
2023-03-16T20:03:33.373Z,9.48
2023-03-16T20:06:01.058Z,10.13
2023-03-16T20:08:29.552Z,10.55
2023-03-16T20:11:04.671Z,10.13
2023-03-16T20:13:32.398Z,9.13
2023-03-16T20:16:00.838Z,8.48
2023-03-16T20:18:29.503Z,7.85
2023-03-16T20:20:57.345Z,8.80
2023-03-16T20:23:30.638Z,9.35
2023-03-16T20:26:02.828Z,9.25
2023-03-16T20:28:36.606Z,9.27
2023-03-16T20:31:08.461Z,9.32
2023-03-16T20:33:36.464Z,10.38
2023-03-16T20:36:03.914Z,9.05
2023-03-16T20:38:31.357Z,10.65
2023-03-16T20:40:58.873Z,9.88
2023-03-16T20:43:28.769Z,10.75
2023-03-16T20:45:59.115Z,10.65
2023-03-16T20:48:27.692Z,11.47
2023-03-16T20:50:57.231Z,12.50
2023-03-16T20:53:24.359Z,11.90
2023-03-16T20:55:52.705Z,12.68
2023-03-16T20:58:25.027Z,14.18
2023-03-16T21:00:57.783Z,14.65
2023-03-16T21:03:28.461Z,15.93
2023-03-16T21:05:59.697Z,14.95
2023-03-16T21:08:27.941Z,16.10
2023-03-16T21:10:57.464Z,15.73
2023-03-16T21:13:33.487Z,14.88
2023-03-16T21:16:04.221Z,14.98
2023-03-16T21:18:31.796Z,14.57
2023-03-16T21:20:59.241Z,14.43
2023-03-16T21:23:26.451Z,14.90
2023-03-16T21:26:01.517Z,14.57
2023-03-16T21:28:32.880Z,14.68
2023-03-16T21:31:02.878Z,16.25
2023-03-16T21:33:33.986Z,16.23
2023-03-16T21:36:02.723Z,16.13
2023-03-16T21:38:31.386Z,15.88
2023-03-16T21:40:59.782Z,16.05
2023-03-16T21:43:27.530Z,15.02
2023-03-16T21:45:57.394Z,15.93
2023-03-16T21:48:30.097Z,16.58
2023-03-16T21:50:59.658Z,17.58
2023-03-16T21:53:31.076Z,18.30
2023-03-16T21:55:59.126Z,18.63
2023-03-16T21:58:27.296Z,18.70
2023-03-16T22:00:55.941Z,16.30
2023-03-16T22:03:49.757Z,18.30
2023-03-16T22:06:18.923Z,18.33
2023-03-16T22:08:46.503Z,18.02
2023-03-16T22:11:20.151Z,19.20
2023-03-16T22:13:48.033Z,19.00
2023-03-16T22:16:18.930Z,19.17
2023-03-16T22:18:48.760Z,17.60
2023-03-16T22:21:35.437Z,17.65
2023-03-16T22:24:05.546Z,17.02
2023-03-16T22:26:33.570Z,18.17
2023-03-16T22:29:01.971Z,18.00
2023-03-16T22:31:35.792Z,18.40
2023-03-16T22:34:03.970Z,19.35
2023-03-16T22:36:33.229Z,18.88
2023-03-16T22:39:03.833Z,19.13
2023-03-16T22:41:32.041Z,19.15
2023-03-16T22:43:59.657Z,18.52
2023-03-16T22:46:28.868Z,20.25
2023-03-16T22:48:56.981Z,19.20
2023-03-16T22:51:30.006Z,19.02
2023-03-16T22:54:08.356Z,20.80
2023-03-16T22:56:36.116Z,19.17
2023-03-16T22:59:06.117Z,17.80
2023-03-16T23:01:37.737Z,20.15
2023-03-16T23:04:15.727Z,19.42
2023-03-16T23:06:43.685Z,19.30
2023-03-16T23:09:13.911Z,20.42
2023-03-16T23:11:43.782Z,20.08
2023-03-16T23:14:16.958Z,21.42
2023-03-16T23:16:45.023Z,20.13
2023-03-16T23:19:34.089Z,22.48
2023-03-16T23:22:05.077Z,21.08
2023-03-16T23:24:33.995Z,21.80
2023-03-16T23:27:02.213Z,20.95
2023-03-16T23:29:30.070Z,21.27
2023-03-16T23:31:57.759Z,20.70
2023-03-16T23:34:26.433Z,23.60
2023-03-16T23:36:53.892Z,23.85
2023-03-16T23:39:21.117Z,25.55
2023-03-16T23:41:50.816Z,25.60
2023-03-16T23:44:22.974Z,24.17
2023-03-16T23:46:51.614Z,22.17
2023-03-16T23:49:25.359Z,23.40
2023-03-16T23:51:55.806Z,23.15
2023-03-16T23:54:26.688Z,22.02
2023-03-16T23:56:54.690Z,23.77
2023-03-16T23:59:23.416Z,24.08
